Aeroporto :
LOGIN :

Iscrizione | Disclaimer

   EN    FR    IT 

 










Sommario :    VFR   VFR Marginale   IFR   IFR Intensivo   IFR Molto Intensivo
Visibilità : 
Base nubi : 
>= 8 km
>= 3000ft
5 / 8 km
1000 / 3000 ft
1500m / 5 km
500 / 1000 ft
800 / 1500m
200 / 500 ft
< 800m
< 200 ft
Simboli :   Temporali  Nebbia  Neve Forte  Precipitazioni Forti  Vento > 20 kt
SIGMETs :   Varie  Temporali  Ghiacco  Turbolenza  Onda orograficha  Ceneri Vulcaniche






- Altitudine del aeroporto : 427 ft
- Codice IATA : CIA


LIRA - Roma Ciampino

ULTIMO METAR :
  • 282350Z 08004KT CAVOK 17/14 Q1015

METARs OBSOLETI :
  • 282320Z 14002KT CAVOK 18/15 Q1015
  • 282250Z 13003KT CAVOK 18/15 Q1015
  • 282220Z 20004KT CAVOK 17/16 Q1015
  • 282150Z 20003KT 170V230 CAVOK 18/16 Q1015
  • 282120Z 17004KT 140V200 CAVOK 19/16 Q1015
  • 282050Z 19007KT CAVOK 18/16 Q1015
  • 282020Z 19006KT CAVOK 19/16 Q1015
  • 281950Z 19004KT 9999 FEW030 19/16 Q1015
  • 281920Z 21006KT 9999 FEW030 19/16 Q1015

TAF TAF LIRA
Valido dal 29 a 00 ore il 30 a 00 ore UTC


282300Z 2900/2924 VRB05KT 9999 SCT040
BECMG 2908/2910 25010KT
BECMG 2918/2920 VRB05KT



MetMap, La meteo Aeronautica in un colpo d'occhio ! - Copyright ORBIFLY Dicembre 2007 - Disclaimer

ORBIFLY MET'MAP TEAM :

Programmazione e sviluppo : Alexandra Zaïnal
Concezione : Baudouin d'Aumeries
Supporto tecnico e logistico : Manuel Goepfert
Aiuto : Marc-Olivier Méhu
Aiuto per la traduzione : Arnaldo La Scala




FONTI E CREDITI :

   NOAA